CPX326 Details

Departure: Robert L. Stanfield International Airport (CYHZ)
Arrival: Miami International Airport (KMIA) at N/A
Route: YQI J585 ACK J62 JOANI SAWED J209 ORF J174 DIW SEELO AR22 JORAY HILEY7
Notes: LOBSTER KING


Current Weather Information
CYHZ 230900Z 12013G20KT 15SM OVC014 08/07 A3016 RMK SC7 SLP218
KMIA 230853Z 00000KT 10SM FEW008 FEW015 26/23 A2996 RMK AO2 SLP146 T02610228 55008